Time;durP1;ratioP1;P1;durP2;ratioP2;P2;SDS_P1;SDS_P2;PMS_P1;PMS_P2;Temp;Humidity;BMP_temperature;BMP_pressure;BME280_temperature;BME280_humidity;BME280_pressure;Samples;Min_cycle;Max_cycle;Signal;HPM_P1;HPM_P2
2022/10/03 00:02:06;;;;;;;17.65;2.17;;;8.50;99.90;;;;;;5027764;28;20325;-44
2022/10/03 00:04:45;;;;;;;17.05;2.00;;;8.20;99.90;;;;;;5027537;28;20041;-46
2022/10/03 00:07:49;;;;;;;16.05;2.13;;;8.20;99.90;;;;;;5027745;28;20052;-46
2022/10/03 00:10:26;;;;;;;22.45;1.85;;;8.10;99.90;;;;;;5027707;28;20052;-46
2022/10/03 00:13:12;;;;;;;18.75;1.90;;;8.00;99.90;;;;;;5026937;28;20515;-45
2022/10/03 00:15:44;;;;;;;16.45;1.52;;;8.00;99.90;;;;;;5036348;28;20156;-45
2022/10/03 00:18:20;;;;;;;17.23;1.60;;;8.00;99.90;;;;;;5047131;28;20590;-45
2022/10/03 00:21:43;;;;;;;17.17;2.05;;;7.90;99.90;;;;;;5046902;28;20449;-45
2022/10/03 00:24:27;;;;;;;13.65;1.67;;;7.90;99.90;;;;;;5005029;28;20042;-48
2022/10/03 00:27:26;;;;;;;15.48;1.85;;;7.90;99.90;;;;;;5004563;28;20056;-45
2022/10/03 00:30:10;;;;;;;18.98;3.15;;;7.90;99.90;;;;;;5038981;28;20055;-46
2022/10/03 00:33:13;;;;;;;18.95;1.95;;;7.90;99.90;;;;;;5046827;28;20542;-46
2022/10/03 00:36:13;;;;;;;19.20;1.80;;;7.90;99.90;;;;;;5046786;28;20041;-47
2022/10/03 00:39:01;;;;;;;11.73;1.70;;;7.90;99.90;;;;;;5047287;28;20076;-46
2022/10/03 00:41:44;;;;;;;18.35;1.98;;;8.00;99.90;;;;;;5047489;28;20051;-45
2022/10/03 00:44:38;;;;;;;21.77;2.08;;;8.00;99.90;;;;;;5047531;28;20040;-44
2022/10/03 00:47:31;;;;;;;16.80;1.60;;;8.10;99.90;;;;;;5047375;28;20045;-44
2022/10/03 00:50:17;;;;;;;22.52;2.35;;;8.10;99.90;;;;;;5046812;28;20496;-44
2022/10/03 00:52:52;;;;;;;13.02;1.63;;;8.20;99.90;;;;;;5045528;28;20047;-46
2022/10/03 00:55:52;;;;;;;24.63;2.45;;;8.80;99.90;;;;;;5046792;28;20093;-45
2022/10/03 00:58:26;;;;;;;17.50;2.17;;;8.30;99.90;;;;;;5046480;28;20127;-46
2022/10/03 01:01:03;;;;;;;14.30;1.67;;;8.30;99.90;;;;;;5046184;28;20374;-44
2022/10/03 01:03:49;;;;;;;17.65;1.83;;;8.90;99.90;;;;;;5046501;28;20372;-46
2022/10/03 01:07:13;;;;;;;19.35;1.65;;;8.40;99.90;;;;;;5046265;28;20120;-46
2022/10/03 01:09:49;;;;;;;14.48;1.70;;;8.60;99.90;;;;;;5022840;28;20773;-46
2022/10/03 01:12:43;;;;;;;20.50;1.70;;;8.60;99.90;;;;;;5023077;28;20045;-45
2022/10/03 01:15:14;;;;;;;28.15;2.40;;;8.70;99.90;;;;;;5039405;28;20483;-48
2022/10/03 01:18:08;;;;;;;14.48;1.52;;;8.60;99.90;;;;;;5046010;28;20041;-47
2022/10/03 01:20:39;;;;;;;15.45;1.80;;;8.90;99.90;;;;;;5046084;28;20091;-46
2022/10/03 01:23:27;;;;;;;14.18;1.80;;;8.90;99.90;;;;;;5046306;28;20395;-46
2022/10/03 01:26:13;;;;;;;15.18;1.80;;;9.00;99.90;;;;;;5045945;28;20470;-46
2022/10/03 01:31:57;;;;;;;18.45;1.77;;;9.10;99.90;;;;;;5045911;28;20517;-45
2022/10/03 01:34:29;;;;;;;18.73;1.70;;;9.20;99.90;;;;;;5046156;28;20077;-45
2022/10/03 01:37:08;;;;;;;13.90;1.65;;;9.20;99.90;;;;;;5045676;28;20047;-45
2022/10/03 01:39:55;;;;;;;16.27;1.60;;;9.30;99.90;;;;;;5046064;28;20045;-46
2022/10/03 01:42:46;;;;;;;19.13;2.10;;;9.30;99.90;;;;;;5045392;28;20139;-45
2022/10/03 01:45:28;;;;;;;11.80;1.80;;;9.30;99.90;;;;;;5045639;28;20041;-45
2022/10/03 01:48:34;;;;;;;16.47;1.77;;;9.40;99.90;;;;;;5045391;28;20479;-44
2022/10/03 01:51:15;;;;;;;18.75;1.83;;;9.40;99.90;;;;;;5029111;28;20287;-46
2022/10/03 01:54:06;;;;;;;12.38;2.67;;;9.50;99.90;;;;;;5045269;28;20422;-46
2022/10/03 01:56:53;;;;;;;24.88;2.53;;;9.40;99.90;;;;;;5045246;28;20037;-45
2022/10/03 01:59:41;;;;;;;20.48;1.88;;;9.50;99.90;;;;;;5045460;28;20040;-46
2022/10/03 02:02:10;;;;;;;18.40;2.60;;;9.50;99.90;;;;;;5045245;28;20080;-46
2022/10/03 02:04:50;;;;;;;16.98;2.38;;;9.50;99.90;;;;;;5045193;28;20499;-45
2022/10/03 02:07:27;;;;;;;12.00;1.58;;;9.50;99.90;;;;;;5045121;28;20474;-46
2022/10/03 02:10:05;;;;;;;17.65;2.00;;;9.70;99.90;;;;;;5045142;28;20069;-46
2022/10/03 02:12:40;;;;;;;14.23;1.48;;;9.40;99.90;;;;;;5045168;28;20068;-46
2022/10/03 02:15:20;;;;;;;12.77;1.73;;;9.30;99.90;;;;;;5044642;28;20053;-45
2022/10/03 02:18:22;;;;;;;15.82;1.42;;;9.30;99.90;;;;;;5045908;28;20053;-46
2022/10/03 02:20:53;;;;;;;16.15;2.50;;;9.30;99.90;;;;;;5003230;28;20065;-46
2022/10/03 02:23:38;;;;;;;15.18;1.55;;;9.20;99.90;;;;;;5038621;28;20478;-46
2022/10/03 02:26:22;;;;;;;16.40;1.23;;;9.10;99.90;;;;;;5045511;28;20135;-45
2022/10/03 02:29:33;;;;;;;21.95;1.98;;;9.00;99.90;;;;;;5045452;28;20053;-45
2022/10/03 02:32:41;;;;;;;17.15;1.80;;;8.90;99.90;;;;;;5045504;28;20041;-45
2022/10/03 02:35:09;;;;;;;16.40;1.45;;;8.80;99.90;;;;;;5045603;28;20102;-46
2022/10/03 02:38:03;;;;;;;17.92;1.45;;;8.60;99.90;;;;;;5045185;28;20049;-46
2022/10/03 02:40:46;;;;;;;18.95;1.77;;;8.60;99.90;;;;;;5045718;28;20486;-50
2022/10/03 02:43:45;;;;;;;14.05;1.00;;;8.50;99.90;;;;;;5045445;28;20047;-45
2022/10/03 02:46:38;;;;;;;14.18;1.17;;;8.50;99.90;;;;;;5044912;28;20550;-44
2022/10/03 02:49:35;;;;;;;13.90;1.33;;;8.50;99.90;;;;;;5044688;28;20490;-45
2022/10/03 02:52:29;;;;;;;13.52;1.17;;;8.50;99.90;;;;;;5044562;28;20552;-44
2022/10/03 02:55:13;;;;;;;20.13;1.48;;;8.60;99.90;;;;;;5044680;28;20049;-44
2022/10/03 02:57:59;;;;;;;14.75;1.42;;;8.60;99.90;;;;;;5044831;28;20189;-43
2022/10/03 03:01:03;;;;;;;20.65;1.92;;;9.40;99.90;;;;;;5023684;28;20060;-42
2022/10/03 03:03:53;;;;;;;16.77;1.35;;;8.70;99.90;;;;;;5044879;28;20183;-43
2022/10/03 03:06:36;;;;;;;12.98;1.33;;;8.80;99.90;;;;;;5045015;28;20056;-43
2022/10/03 03:09:13;;;;;;;20.15;1.52;;;8.90;99.90;;;;;;5045274;28;20393;-43
2022/10/03 03:11:42;;;;;;;10.63;1.42;;;8.90;99.90;;;;;;5043445;28;20102;-44
2022/10/03 03:14:28;;;;;;;15.73;1.40;;;9.30;99.90;;;;;;5047314;28;20499;-45
2022/10/03 03:17:08;;;;;;;15.43;1.38;;;8.90;99.90;;;;;;5048227;28;20668;-44
2022/10/03 03:19:55;;;;;;;14.93;1.27;;;9.00;99.90;;;;;;5048380;28;20068;-43
2022/10/03 03:22:51;;;;;;;10.13;1.08;;;10.30;99.90;;;;;;5047708;28;20047;-44
2022/10/03 03:25:55;;;;;;;15.20;1.88;;;9.10;99.90;;;;;;5047948;28;20489;-45
2022/10/03 03:28:43;;;;;;;11.93;1.63;;;9.20;99.90;;;;;;5048296;28;20144;-44
2022/10/03 03:31:17;;;;;;;8.35;0.85;;;9.20;99.90;;;;;;5048300;28;20450;-44
2022/10/03 03:33:49;;;;;;;15.95;1.15;;;10.10;99.90;;;;;;5048403;28;20474;-45
2022/10/03 03:36:45;;;;;;;;;;;9.30;99.90;;;;;;5048359;28;20045;-46
2022/10/03 03:39:32;;;;;;;13.82;1.38;;;9.30;99.90;;;;;;5027784;28;19996;-44
2022/10/03 03:42:13;;;;;;;18.25;1.55;;;9.30;99.90;;;;;;5047690;28;20499;-43
2022/10/03 03:45:17;;;;;;;11.25;0.93;;;9.40;99.90;;;;;;5047849;28;20526;-44
2022/10/03 03:48:21;;;;;;;17.77;1.83;;;9.40;99.90;;;;;;5047505;28;20053;-43
2022/10/03 03:50:58;;;;;;;16.17;1.48;;;9.40;99.90;;;;;;5047571;28;20041;-44
2022/10/03 03:53:36;;;;;;;22.70;1.67;;;9.50;99.90;;;;;;5047571;28;20502;-44
2022/10/03 03:56:33;;;;;;;13.23;0.90;;;9.60;99.90;;;;;;5047465;28;20555;-44
2022/10/03 03:59:36;;;;;;;15.18;1.50;;;9.60;99.90;;;;;;5047085;28;20218;-46
2022/10/03 04:02:11;;;;;;;18.52;1.13;;;9.60;99.90;;;;;;5045717;28;20053;-44
2022/10/03 04:05:03;;;;;;;16.55;1.25;;;9.60;99.90;;;;;;5045983;28;20041;-44
2022/10/03 04:07:38;;;;;;;20.88;2.08;;;9.70;99.90;;;;;;5046791;28;20379;-44
2022/10/03 04:10:35;;;;;;;18.77;1.90;;;9.70;99.90;;;;;;5047253;28;20628;-44
2022/10/03 04:13:39;;;;;;;22.65;2.03;;;9.70;99.90;;;;;;5047011;28;20052;-44
2022/10/03 04:19:47;;;;;;;18.40;1.40;;;9.70;99.90;;;;;;5046887;28;20624;-45
2022/10/03 04:22:41;;;;;;;12.48;1.40;;;9.70;99.90;;;;;;5046910;28;20041;-46
2022/10/03 04:25:22;;;;;;;11.82;1.15;;;9.70;99.90;;;;;;5044304;28;20055;-46
2022/10/03 04:28:27;;;;;;;17.25;1.65;;;9.70;99.90;;;;;;5047356;28;20048;-46
2022/10/03 04:31:23;;;;;;;10.73;1.48;;;9.70;99.90;;;;;;5025808;28;20064;-44
2022/10/03 04:33:52;;;;;;;17.00;1.02;;;9.70;99.90;;;;;;5047553;28;20071;-45
2022/10/03 04:36:27;;;;;;;18.08;2.17;;;9.60;99.90;;;;;;5047026;28;20053;-45
2022/10/03 04:39:28;;;;;;;9.55;1.17;;;9.70;99.90;;;;;;5047040;28;20045;-44
2022/10/03 04:42:00;;;;;;;16.42;1.65;;;9.50;99.90;;;;;;5004065;28;20041;-45
2022/10/03 04:44:50;;;;;;;10.15;1.08;;;9.70;99.90;;;;;;5040007;28;20088;-45
2022/10/03 04:47:33;;;;;;;19.92;2.80;;;9.40;99.90;;;;;;5046517;28;20048;-46
2022/10/03 04:50:18;;;;;;;14.77;1.27;;;9.30;99.90;;;;;;5047300;28;20051;-45
2022/10/03 04:52:49;;;;;;;12.45;1.63;;;9.30;99.90;;;;;;5047778;28;20041;-44
2022/10/03 04:55:45;;;;;;;13.47;0.90;;;9.20;99.90;;;;;;5046984;28;20041;-44
2022/10/03 04:58:37;;;;;;;13.88;1.67;;;9.20;99.90;;;;;;5046470;28;20430;-45
2022/10/03 05:01:32;;;;;;;20.63;1.80;;;9.20;99.90;;;;;;5046168;28;20049;-46
2022/10/03 05:04:17;;;;;;;16.10;1.25;;;9.20;99.90;;;;;;5046509;28;20063;-45
2022/10/03 05:07:01;;;;;;;12.57;1.10;;;9.20;99.90;;;;;;5046019;28;20044;-45
2022/10/03 05:09:38;;;;;;;13.75;1.58;;;9.20;99.90;;;;;;5046382;28;20446;-44
2022/10/03 05:12:38;;;;;;;12.52;1.30;;;9.20;99.90;;;;;;5046408;28;20126;-45
2022/10/03 05:15:10;;;;;;;11.80;1.60;;;9.10;99.90;;;;;;5046211;28;20453;-45
2022/10/03 05:17:51;;;;;;;12.80;1.20;;;9.80;99.90;;;;;;5044544;28;20048;-46
2022/10/03 05:20:25;;;;;;;11.23;0.80;;;8.90;99.90;;;;;;5045868;28;20049;-46
2022/10/03 05:22:53;;;;;;;13.75;1.25;;;8.90;99.90;;;;;;5046109;28;20044;-42
2022/10/03 05:25:44;;;;;;;8.43;1.40;;;9.40;99.90;;;;;;5045842;28;20528;-43
2022/10/03 05:28:35;;;;;;;14.48;0.90;;;8.60;99.90;;;;;;5046079;28;20056;-44
2022/10/03 05:31:43;;;;;;;14.90;0.68;;;8.50;99.90;;;;;;5046512;28;20056;-44
2022/10/03 05:34:18;;;;;;;10.82;0.98;;;8.40;99.90;;;;;;5046507;28;20037;-44
2022/10/03 05:37:34;;;;;;;9.63;1.63;;;8.40;99.90;;;;;;5046045;28;20044;-43
2022/10/03 05:40:03;;;;;;;13.60;0.95;;;8.30;99.90;;;;;;5028121;28;20102;-43
2022/10/03 05:42:32;;;;;;;17.67;1.13;;;8.20;99.90;;;;;;5045512;28;20372;-45
2022/10/03 05:45:29;;;;;;;9.30;1.30;;;8.20;99.90;;;;;;5045741;28;20385;-42
2022/10/03 05:48:00;;;;;;;15.13;1.17;;;8.20;99.90;;;;;;5040234;28;20118;-43
2022/10/03 05:50:35;;;;;;;12.05;1.05;;;8.20;99.90;;;;;;5045931;28;20041;-44
2022/10/03 05:53:33;;;;;;;17.88;1.42;;;8.10;99.90;;;;;;5045895;28;20129;-44
2022/10/03 05:56:26;;;;;;;13.45;1.30;;;8.10;99.90;;;;;;5045413;28;20397;-46
2022/10/03 05:59:11;;;;;;;;;;;8.10;99.90;;;;;;5046658;28;20044;-46
2022/10/03 06:01:57;;;;;;;20.10;2.10;;;8.10;99.90;;;;;;5045478;28;19998;-44
2022/10/03 06:05:00;;;;;;;13.00;1.08;;;8.10;99.90;;;;;;5045186;28;20048;-43
2022/10/03 06:07:45;;;;;;;14.43;1.20;;;8.10;99.90;;;;;;5045163;28;20049;-43
2022/10/03 06:10:40;;;;;;;20.10;1.77;;;8.00;99.90;;;;;;5045390;28;20086;-44
2022/10/03 06:13:10;;;;;;;21.55;1.83;;;8.00;99.90;;;;;;5045223;28;20049;-44
2022/10/03 06:15:53;;;;;;;16.92;1.05;;;8.00;99.90;;;;;;5044781;28;20053;-45
2022/10/03 06:18:36;;;;;;;17.35;2.08;;;8.90;99.90;;;;;;5044904;28;20128;-44
2022/10/03 06:21:22;;;;;;;11.20;1.33;;;8.00;99.90;;;;;;5043997;28;20049;-45
2022/10/03 06:24:00;;;;;;;12.05;1.85;;;8.10;99.90;;;;;;5045828;28;20049;-43
2022/10/03 06:26:56;;;;;;;13.70;1.60;;;8.10;99.90;;;;;;5045347;28;20375;-46
2022/10/03 06:29:34;;;;;;;11.85;1.27;;;8.20;99.90;;;;;;5045347;28;20068;-43
2022/10/03 06:32:15;;;;;;;14.38;1.40;;;8.20;99.90;;;;;;5045298;28;20498;-47
2022/10/03 06:35:14;;;;;;;10.13;1.05;;;8.20;99.90;;;;;;5045073;28;20041;-48
2022/10/03 06:38:01;;;;;;;16.45;1.13;;;8.30;99.90;;;;;;5045129;28;20479;-44
2022/10/03 06:40:38;;;;;;;16.63;1.85;;;8.30;99.90;;;;;;5045305;28;20045;-45
2022/10/03 06:43:24;;;;;;;10.60;1.05;;;8.30;99.90;;;;;;5045373;28;20044;-44
2022/10/03 06:46:44;;;;;;;23.17;1.83;;;8.30;99.90;;;;;;5045269;28;20048;-45
2022/10/03 06:49:54;;;;;;;11.23;0.90;;;8.40;99.90;;;;;;5025614;28;20065;-44
2022/10/03 06:52:52;;;;;;;10.38;1.30;;;8.40;99.90;;;;;;5048456;28;20037;-45
2022/10/03 06:55:49;;;;;;;13.18;1.80;;;8.50;99.90;;;;;;5030291;28;20053;-46
2022/10/03 06:58:27;;;;;;;12.25;1.52;;;8.60;99.90;;;;;;5047196;28;20080;-45
2022/10/03 07:00:57;;;;;;;12.82;2.28;;;8.70;99.90;;;;;;5048931;28;20048;-44
2022/10/03 07:04:05;;;;;;;13.00;2.78;;;8.80;99.90;;;;;;5048026;28;20495;-46
2022/10/03 07:07:09;;;;;;;13.75;1.30;;;9.00;99.90;;;;;;5047902;28;20064;-48
2022/10/03 07:10:10;;;;;;;11.20;1.90;;;9.60;99.90;;;;;;5026827;28;20063;-47
2022/10/03 07:12:51;;;;;;;12.68;1.35;;;10.10;99.90;;;;;;5045853;28;20053;-47
2022/10/03 07:15:32;;;;;;;15.95;1.80;;;10.10;99.90;;;;;;5048352;28;20097;-47
2022/10/03 07:18:36;;;;;;;14.82;2.13;;;10.10;99.90;;;;;;5047900;28;20052;-46
2022/10/03 07:21:43;;;;;;;9.57;1.27;;;10.10;99.90;;;;;;5048629;28;20499;-45
2022/10/03 07:24:22;;;;;;;9.02;1.23;;;10.30;99.90;;;;;;5027468;28;20052;-52
2022/10/03 07:27:10;;;;;;;14.27;1.92;;;10.60;99.90;;;;;;5048435;28;20060;-51
2022/10/03 07:30:13;;;;;;;9.48;1.42;;;10.60;99.90;;;;;;5048971;28;20060;-51
2022/10/03 07:33:03;;;;;;;11.48;1.63;;;10.50;99.90;;;;;;5048219;28;20094;-51
2022/10/03 07:41:31;;;;;;;12.05;0.80;;;10.40;99.90;;;;;;5047846;28;20056;-50
2022/10/03 07:44:34;;;;;;;15.93;0.82;;;10.60;99.90;;;;;;5048310;28;20045;-50
2022/10/03 07:47:18;;;;;;;15.18;1.23;;;11.00;99.90;;;;;;5048256;28;20044;-50
2022/10/03 07:50:28;;;;;;;16.15;1.55;;;11.20;99.90;;;;;;5048163;28;20044;-48
2022/10/03 07:52:59;;;;;;;13.35;1.10;;;11.20;99.90;;;;;;5046449;28;20056;-49
2022/10/03 07:56:01;;;;;;;9.15;1.20;;;11.00;99.90;;;;;;5046135;28;20398;-49
2022/10/03 07:58:44;;;;;;;13.13;1.05;;;11.20;99.90;;;;;;5047207;28;20056;-49
2022/10/03 08:01:30;;;;;;;17.42;1.10;;;11.30;99.90;;;;;;5045805;28;20052;-52
2022/10/03 08:04:20;;;;;;;15.65;1.42;;;11.40;99.90;;;;;;5046718;28;20163;-50
2022/10/03 08:07:09;;;;;;;10.23;0.88;;;11.50;99.90;;;;;;5046940;28;20526;-49
2022/10/03 08:09:59;;;;;;;8.13;1.08;;;11.60;99.90;;;;;;5047561;28;20569;-47
2022/10/03 08:12:39;;;;;;;12.27;1.60;;;11.80;99.90;;;;;;5047687;28;20473;-49
2022/10/03 08:15:55;;;;;;;9.98;1.35;;;11.90;99.90;;;;;;5047537;28;20068;-48
2022/10/03 08:18:42;;;;;;;12.50;2.63;;;12.10;99.90;;;;;;5029256;28;20041;-49
2022/10/03 08:21:17;;;;;;;13.68;1.50;;;12.20;99.90;;;;;;5047395;28;20040;-49
2022/10/03 08:24:07;;;;;;;8.63;1.30;;;12.30;99.90;;;;;;5047138;28;20041;-48
2022/10/03 08:26:54;;;;;;;9.52;1.05;;;12.40;99.90;;;;;;5047011;28;20045;-49
2022/10/03 08:29:30;;;;;;;21.38;1.35;;;12.60;99.90;;;;;;5047740;28;20049;-48
2022/10/03 08:32:33;;;;;;;15.68;1.77;;;12.70;99.90;;;;;;5047317;28;20391;-48
2022/10/03 08:35:37;;;;;;;6.93;0.65;;;13.00;99.90;;;;;;5045843;28;20128;-50
2022/10/03 08:38:06;;;;;;;9.10;1.15;;;13.10;99.90;;;;;;5047225;28;20051;-51
2022/10/03 08:40:55;;;;;;;6.78;0.68;;;13.30;99.90;;;;;;5047457;28;20537;-52
2022/10/03 08:43:40;;;;;;;10.65;1.33;;;13.40;99.90;;;;;;5046988;28;20049;-50
2022/10/03 08:46:20;;;;;;;11.50;0.45;;;13.60;99.90;;;;;;5047007;28;20045;-49
2022/10/03 08:49:15;;;;;;;10.88;0.90;;;13.80;99.90;;;;;;5046916;28;20439;-49
2022/10/03 08:51:58;;;;;;;10.70;0.52;;;13.90;99.90;;;;;;5046444;28;20049;-50
2022/10/03 08:54:43;;;;;;;7.30;0.65;;;14.00;99.90;;;;;;5046447;28;20068;-48
2022/10/03 08:57:15;;;;;;;7.50;1.05;;;14.30;99.90;;;;;;5046728;28;20052;-49
2022/10/03 08:59:49;;;;;;;13.35;0.80;;;14.60;99.90;;;;;;5046851;28;20372;-49
2022/10/03 09:02:37;;;;;;;8.60;0.60;;;14.40;99.90;;;;;;5047054;28;20485;-49
2022/10/03 09:05:35;;;;;;;9.48;0.40;;;14.60;99.90;;;;;;5046503;28;20052;-50
2022/10/03 09:08:22;;;;;;;6.20;0.52;;;13.60;99.90;;;;;;5046212;28;20735;-49
2022/10/03 09:11:29;;;;;;;5.32;0.70;;;14.80;99.90;;;;;;5045766;28;20049;-49
2022/10/03 09:14:16;;;;;;;10.57;0.90;;;15.10;99.90;;;;;;5046424;28;20518;-49
2022/10/03 09:16:52;;;;;;;5.75;0.60;;;15.20;99.90;;;;;;5046051;28;20531;-50
2022/10/03 09:19:25;;;;;;;6.00;0.52;;;15.50;99.90;;;;;;5046787;28;20048;-48
2022/10/03 09:22:31;;;;;;;12.35;1.00;;;15.20;99.90;;;;;;5044705;28;20060;-49
2022/10/03 09:25:14;;;;;;;8.02;1.00;;;15.40;99.90;;;;;;5045561;28;20044;-48
2022/10/03 09:27:50;;;;;;;9.93;0.75;;;15.50;99.90;;;;;;5045957;28;20041;-50
2022/10/03 09:30:22;;;;;;;6.60;0.50;;;15.60;99.90;;;;;;5046205;28;20044;-48
2022/10/03 09:32:51;;;;;;;10.63;0.93;;;15.60;99.90;;;;;;5046028;28;20127;-49
2022/10/03 09:35:42;;;;;;;7.80;0.40;;;15.70;99.90;;;;;;5045804;28;20044;-49
2022/10/03 09:38:37;;;;;;;3.72;0.65;;;15.70;99.90;;;;;;5045934;28;20072;-49
2022/10/03 09:41:44;;;;;;;6.97;0.65;;;15.80;99.90;;;;;;5045941;28;20433;-50
2022/10/03 09:44:25;;;;;;;7.47;0.60;;;15.80;99.90;;;;;;5002958;28;20045;-49
2022/10/03 09:47:21;;;;;;;7.75;1.02;;;15.80;99.90;;;;;;5002714;28;20084;-48
2022/10/03 09:50:08;;;;;;;9.23;0.88;;;15.90;99.90;;;;;;5036384;28;20178;-49
2022/10/03 09:52:40;;;;;;;9.75;0.88;;;16.00;99.90;;;;;;5045547;28;20041;-50
2022/10/03 09:55:33;;;;;;;5.95;0.40;;;16.00;99.90;;;;;;5045407;28;20086;-49
2022/10/03 09:58:20;;;;;;;3.67;0.73;;;16.10;99.90;;;;;;5045934;28;20048;-50
2022/10/03 10:01:06;;;;;;;9.73;0.82;;;16.20;99.90;;;;;;5045446;28;20782;-48
2022/10/03 10:04:11;;;;;;;7.07;0.75;;;16.20;99.90;;;;;;5045440;28;20085;-50
2022/10/03 10:07:16;;;;;;;5.47;0.68;;;16.20;99.90;;;;;;5045025;28;20049;-49
2022/10/03 10:10:09;;;;;;;5.97;0.35;;;16.20;99.90;;;;;;5045536;28;20052;-49
2022/10/03 10:13:03;;;;;;;7.07;0.82;;;16.30;99.90;;;;;;5044378;28;20072;-48
2022/10/03 10:15:42;;;;;;;4.18;0.20;;;16.30;99.90;;;;;;5045757;28;20474;-52
2022/10/03 10:18:26;;;;;;;5.70;0.50;;;16.30;99.90;;;;;;5045688;28;20410;-48
2022/10/03 10:21:10;;;;;;;4.32;0.30;;;16.30;99.90;;;;;;5045458;28;20049;-49
2022/10/03 10:23:42;;;;;;;6.97;0.50;;;16.30;99.90;;;;;;5049072;28;20045;-51
2022/10/03 10:26:22;;;;;;;3.90;0.30;;;16.30;99.90;;;;;;5049148;28;20552;-49
2022/10/03 10:29:11;;;;;;;4.78;0.28;;;16.50;99.90;;;;;;5048627;28;20053;-50
2022/10/03 10:32:10;;;;;;;10.55;0.80;;;16.60;99.90;;;;;;5049069;28;20091;-49
2022/10/03 10:35:14;;;;;;;6.53;0.50;;;16.70;99.90;;;;;;5048941;28;20048;-50
2022/10/03 10:38:04;;;;;;;4.85;0.50;;;16.80;99.90;;;;;;5048895;28;20167;-49
2022/10/03 10:40:58;;;;;;;6.20;0.30;;;16.90;99.90;;;;;;5048740;28;20052;-50
2022/10/03 10:43:58;;;;;;;6.38;0.43;;;17.00;99.90;;;;;;5049003;28;20052;-49
2022/10/03 10:47:05;;;;;;;6.10;0.30;;;17.10;99.90;;;;;;5041038;28;20514;-50
2022/10/03 10:49:48;;;;;;;8.15;0.40;;;17.20;99.90;;;;;;5049159;28;20060;-50
2022/10/03 10:52:43;;;;;;;4.82;0.45;;;17.20;99.90;;;;;;5048952;28;20045;-49
2022/10/03 10:55:34;;;;;;;3.60;0.30;;;17.10;99.90;;;;;;5048732;28;20044;-49
2022/10/03 10:58:18;;;;;;;2.30;0.25;;;17.00;99.90;;;;;;5048208;28;20578;-48
2022/10/03 11:01:04;;;;;;;5.85;0.40;;;16.90;99.90;;;;;;5048639;28;20044;-49
2022/10/03 11:03:56;;;;;;;8.88;0.80;;;17.00;99.90;;;;;;5047670;28;20132;-50
2022/10/03 11:06:33;;;;;;;6.35;0.73;;;17.00;99.90;;;;;;5049003;28;20144;-49
2022/10/03 11:09:13;;;;;;;5.03;0.30;;;17.10;99.90;;;;;;5045678;28;20092;-50
2022/10/03 11:12:02;;;;;;;6.45;0.60;;;17.10;99.90;;;;;;5044719;28;20041;-48
2022/10/03 11:14:49;;;;;;;7.30;0.60;;;17.00;99.90;;;;;;5046950;28;20048;-57
2022/10/03 11:17:42;;;;;;;4.93;0.47;;;17.10;99.90;;;;;;5047266;28;20660;-56
2022/10/03 11:20:26;;;;;;;8.10;0.85;;;17.10;99.90;;;;;;5048493;28;20143;-48
2022/10/03 11:23:27;;;;;;;6.53;0.70;;;17.10;99.90;;;;;;5048168;28;20467;-46
2022/10/03 11:26:46;;;;;;;9.38;0.85;;;17.10;99.90;;;;;;5048138;28;20045;-54
2022/10/03 11:29:43;;;;;;;11.20;0.90;;;17.10;99.90;;;;;;5048413;28;20083;-57
2022/10/03 11:32:40;;;;;;;4.57;0.50;;;17.20;99.90;;;;;;5048425;28;20060;-47
2022/10/03 11:35:43;;;;;;;3.70;0.28;;;17.20;99.90;;;;;;5047372;28;20120;-47
2022/10/03 11:38:21;;;;;;;6.85;0.90;;;17.20;99.90;;;;;;5047556;28;20060;-45
2022/10/03 11:40:52;;;;;;;4.75;0.40;;;17.10;99.90;;;;;;5047732;28;20052;-46
2022/10/03 11:43:53;;;;;;;5.73;0.27;;;17.00;99.90;;;;;;5047025;28;20513;-46
2022/10/03 11:46:34;;;;;;;2.95;0.50;;;16.80;99.90;;;;;;5047225;28;20045;-45
2022/10/03 11:49:24;;;;;;;4.72;0.20;;;16.70;99.90;;;;;;5045768;28;20132;-52
2022/10/03 11:51:57;;;;;;;3.35;0.30;;;16.60;99.90;;;;;;5045881;28;20507;-47
2022/10/03 11:54:27;;;;;;;6.88;0.85;;;16.40;99.90;;;;;;5046857;28;20037;-46
2022/10/03 11:57:04;;;;;;;6.22;0.32;;;16.40;99.90;;;;;;5047404;28;20140;-48
2022/10/03 11:59:59;;;;;;;5.05;0.35;;;16.40;99.90;;;;;;5047340;28;20043;-48
2022/10/03 12:02:53;;;;;;;7.80;0.75;;;16.40;99.90;;;;;;5045786;28;20483;-45
2022/10/03 12:05:38;;;;;;;6.43;0.50;;;16.30;99.90;;;;;;5046624;28;20045;-45
2022/10/03 12:11:28;;;;;;;5.45;0.30;;;16.30;99.90;;;;;;5046926;28;20198;-47
2022/10/03 12:14:08;;;;;;;4.65;0.32;;;16.30;99.90;;;;;;5046762;28;20489;-47
2022/10/03 12:17:04;;;;;;;6.03;0.73;;;16.30;99.90;;;;;;5046159;28;20064;-53
2022/10/03 12:19:42;;;;;;;2.50;0.40;;;16.30;99.90;;;;;;5047233;28;20053;-42
2022/10/03 12:22:38;;;;;;;5.97;0.30;;;16.30;99.90;;;;;;5047013;28;20257;-47
2022/10/03 12:25:32;;;;;;;4.75;0.60;;;16.30;99.90;;;;;;5047219;28;20087;-48
2022/10/03 12:28:20;;;;;;;4.07;0.30;;;16.30;99.90;;;;;;5037150;28;20059;-38
2022/10/03 12:30:54;;;;;;;3.20;0.50;;;16.30;99.90;;;;;;5043845;28;20166;-45
2022/10/03 12:33:38;;;;;;;4.75;0.22;;;16.30;99.90;;;;;;5046366;28;20200;-54
2022/10/03 12:36:14;;;;;;;10.25;1.20;;;16.40;99.90;;;;;;5047224;28;20471;-45
2022/10/03 12:39:18;;;;;;;4.43;0.50;;;16.40;99.90;;;;;;5047322;28;20056;-44
2022/10/03 12:41:54;;;;;;;7.82;0.95;;;16.40;99.90;;;;;;5047625;28;20183;-47
2022/10/03 12:44:40;;;;;;;3.85;0.38;;;16.50;99.90;;;;;;5046488;28;20049;-46
2022/10/03 12:47:44;;;;;;;4.97;0.20;;;16.50;99.90;;;;;;5043374;28;20689;-47
2022/10/03 12:50:32;;;;;;;4.80;0.50;;;16.50;99.90;;;;;;5045368;28;20076;-46
2022/10/03 12:53:14;;;;;;;3.63;0.20;;;16.60;99.90;;;;;;5046318;28;20041;-45
2022/10/03 12:55:58;;;;;;;3.17;0.30;;;16.60;99.90;;;;;;5045818;28;20045;-47
2022/10/03 12:58:31;;;;;;;5.47;0.40;;;16.60;99.90;;;;;;5046058;28;20103;-45
2022/10/03 13:01:02;;;;;;;4.47;0.20;;;17.20;99.90;;;;;;5045962;28;20379;-45
2022/10/03 13:03:38;;;;;;;4.82;1.00;;;16.80;99.90;;;;;;5046426;28;20056;-42
2022/10/03 13:06:34;;;;;;;3.60;0.22;;;17.00;99.90;;;;;;5046591;28;20041;-46
2022/10/03 13:09:09;;;;;;;5.88;0.73;;;17.20;99.90;;;;;;5045788;28;20048;-46
2022/10/03 13:11:44;;;;;;;3.60;0.28;;;17.30;99.90;;;;;;5045381;28;20052;-46
2022/10/03 13:14:20;;;;;;;3.22;0.20;;;17.40;99.90;;;;;;5044055;28;20049;-44
2022/10/03 13:16:45;;;;;;;3.92;0.32;;;17.40;99.90;;;;;;5040311;28;20057;-40
2022/10/03 13:19:26;;;;;;;3.88;0.25;;;17.50;99.90;;;;;;5045775;28;20444;-46
2022/10/03 13:22:32;;;;;;;5.95;0.70;;;17.50;99.90;;;;;;5046352;28;20040;-51
2022/10/03 13:25:11;;;;;;;5.50;0.35;;;17.50;99.90;;;;;;5047592;28;20243;-50
2022/10/03 13:27:36;;;;;;;6.75;0.63;;;17.50;99.90;;;;;;5045259;28;20101;-53
2022/10/03 13:30:17;;;;;;;7.88;1.20;;;17.50;99.90;;;;;;5045733;28;20040;-48
2022/10/03 13:33:00;;;;;;;3.92;0.70;;;17.50;99.90;;;;;;5043549;28;20041;-50
2022/10/03 13:38:58;;;;;;;6.00;0.32;;;17.40;99.90;;;;;;5043768;28;20052;-49
2022/10/03 13:41:37;;;;;;;5.22;0.70;;;17.30;99.90;;;;;;5044220;28;20157;-53
2022/10/03 13:44:12;;;;;;;6.03;0.75;;;17.30;99.90;;;;;;5043476;28;20077;-47
2022/10/03 13:46:47;;;;;;;5.72;0.32;;;17.20;99.90;;;;;;5045917;28;20545;-45
2022/10/03 13:49:39;;;;;;;5.30;0.40;;;17.20;99.90;;;;;;5044648;28;20503;-43
2022/10/03 13:52:17;;;;;;;6.13;0.22;;;17.00;99.90;;;;;;5037616;28;20052;-56
2022/10/03 13:55:25;;;;;;;5.30;0.30;;;16.90;99.90;;;;;;5043509;28;20041;-48
2022/10/03 13:58:31;;;;;;;3.92;0.85;;;16.80;99.90;;;;;;5043454;28;20049;-53
2022/10/03 14:01:25;;;;;;;2.75;0.20;;;16.80;99.90;;;;;;5045071;28;20053;-49
2022/10/03 14:03:54;;;;;;;3.55;0.40;;;17.30;99.90;;;;;;5043911;28;20057;-48
2022/10/03 14:06:33;;;;;;;7.82;0.40;;;16.80;99.90;;;;;;5043469;28;20051;-53
2022/10/03 14:09:19;;;;;;;10.25;1.52;;;16.90;99.90;;;;;;5044730;28;20174;-45
2022/10/03 14:12:20;;;;;;;9.77;1.67;;;16.90;99.90;;;;;;5045111;28;20114;-42
2022/10/03 14:15:04;;;;;;;4.97;0.30;;;16.80;99.90;;;;;;5048360;28;20041;-50
2022/10/03 14:17:53;;;;;;;3.08;0.20;;;16.80;99.90;;;;;;5044801;28;20053;-47
2022/10/03 14:20:59;;;;;;;6.25;0.45;;;16.70;99.90;;;;;;5045061;28;20045;-46
2022/10/03 14:23:41;;;;;;;5.07;0.70;;;16.70;99.90;;;;;;5045022;28;20075;-43
2022/10/03 14:26:24;;;;;;;13.38;1.92;;;16.60;99.90;;;;;;5044806;28;20051;-41
2022/10/03 14:29:14;;;;;;;5.15;0.50;;;16.60;99.90;;;;;;5044855;28;20049;-42
2022/10/03 14:31:49;;;;;;;3.42;0.30;;;17.50;99.90;;;;;;5043469;28;20899;-42
2022/10/03 14:34:32;;;;;;;7.25;0.93;;;16.40;99.90;;;;;;5044523;28;20056;-42
2022/10/03 14:37:03;;;;;;;8.00;0.68;;;16.30;99.90;;;;;;5044727;28;20395;-46
2022/10/03 14:40:14;;;;;;;21.77;5.22;;;16.20;99.90;;;;;;5044720;28;20087;-44
2022/10/03 14:43:12;;;;;;;11.48;1.80;;;16.10;99.90;;;;;;5044607;28;20050;-45
2022/10/03 14:45:47;;;;;;;8.77;1.02;;;16.10;99.90;;;;;;5028091;28;20132;-42
2022/10/03 14:48:43;;;;;;;5.75;0.60;;;16.00;99.90;;;;;;5043810;28;20060;-42